sensor_id;sensor_type;location;lat;lon;timestamp;pressure;altitude;pressure_sealevel;temperature;humidity
15678;BME280;7939;50.814;6.368;2023-04-01T00:02:25;97758.47;;;14.28;62.37
15678;BME280;7939;50.814;6.368;2023-04-01T00:04:51;97753.31;;;14.28;62.37
15678;BME280;7939;50.814;6.368;2023-04-01T00:07:18;97757.75;;;14.24;62.50
15678;BME280;7939;50.814;6.368;2023-04-01T00:09:45;97759.38;;;14.27;62.50
15678;BME280;7939;50.814;6.368;2023-04-01T00:12:12;97749.13;;;14.25;61.87
15678;BME280;7939;50.814;6.368;2023-04-01T00:14:39;97751.72;;;14.25;61.88
15678;BME280;7939;50.814;6.368;2023-04-01T00:17:06;97745.81;;;14.23;62.28
15678;BME280;7939;50.814;6.368;2023-04-01T00:19:32;97753.44;;;14.25;62.42
15678;BME280;7939;50.814;6.368;2023-04-01T00:21:59;97752.63;;;14.24;62.77
15678;BME280;7939;50.814;6.368;2023-04-01T00:24:26;97757.75;;;14.24;62.55
15678;BME280;7939;50.814;6.368;2023-04-01T00:26:52;97749.31;;;14.22;62.23
15678;BME280;7939;50.814;6.368;2023-04-01T00:29:20;97747.66;;;14.21;62.37
15678;BME280;7939;50.814;6.368;2023-04-01T00:31:49;97735.91;;;14.16;61.84
15678;BME280;7939;50.814;6.368;2023-04-01T00:34:16;97755.47;;;14.18;62.94
15678;BME280;7939;50.814;6.368;2023-04-01T00:36:42;97736.00;;;14.14;62.87
15678;BME280;7939;50.814;6.368;2023-04-01T00:39:09;97741.25;;;14.11;63.00
15678;BME280;7939;50.814;6.368;2023-04-01T00:41:35;97742.84;;;14.14;62.52
15678;BME280;7939;50.814;6.368;2023-04-01T00:44:15;97741.97;;;14.15;62.27
15678;BME280;7939;50.814;6.368;2023-04-01T00:46:44;97751.41;;;14.14;62.40
15678;BME280;7939;50.814;6.368;2023-04-01T00:49:11;97738.63;;;14.13;62.73
15678;BME280;7939;50.814;6.368;2023-04-01T00:51:39;97750.78;;;14.09;62.37
15678;BME280;7939;50.814;6.368;2023-04-01T00:54:08;97748.97;;;14.11;62.55
15678;BME280;7939;50.814;6.368;2023-04-01T00:56:37;97745.50;;;14.12;62.30
15678;BME280;7939;50.814;6.368;2023-04-01T00:59:09;97748.22;;;14.09;62.93
15678;BME280;7939;50.814;6.368;2023-04-01T01:01:37;97760.22;;;14.09;62.59
15678;BME280;7939;50.814;6.368;2023-04-01T01:04:05;97749.13;;;14.08;63.00
15678;BME280;7939;50.814;6.368;2023-04-01T01:06:40;97779.16;;;14.06;62.65
15678;BME280;7939;50.814;6.368;2023-04-01T01:09:30;97762.09;;;14.05;63.31
15678;BME280;7939;50.814;6.368;2023-04-01T01:12:05;97751.75;;;14.07;62.98
15678;BME280;7939;50.814;6.368;2023-04-01T01:14:44;97749.25;;;14.05;62.26
15678;BME280;7939;50.814;6.368;2023-04-01T01:17:21;97749.25;;;14.05;62.29
15678;BME280;7939;50.814;6.368;2023-04-01T01:20:15;97754.25;;;14.08;62.83
15678;BME280;7939;50.814;6.368;2023-04-01T01:22:53;97750.28;;;14.01;62.78
15678;BME280;7939;50.814;6.368;2023-04-01T01:25:40;97749.63;;;13.97;63.39
15678;BME280;7939;50.814;6.368;2023-04-01T01:28:26;97749.53;;;13.99;62.65
15678;BME280;7939;50.814;6.368;2023-04-01T01:31:03;97749.53;;;13.99;62.68
15678;BME280;7939;50.814;6.368;2023-04-01T01:34:01;97744.41;;;13.99;63.14
15678;BME280;7939;50.814;6.368;2023-04-01T01:36:33;97747.06;;;13.97;63.31
15678;BME280;7939;50.814;6.368;2023-04-01T01:39:01;97745.31;;;13.98;63.25
15678;BME280;7939;50.814;6.368;2023-04-01T01:41:28;97750.56;;;13.95;63.29
15678;BME280;7939;50.814;6.368;2023-04-01T01:43:59;97754.06;;;13.94;63.15
15678;BME280;7939;50.814;6.368;2023-04-01T01:46:27;97750.66;;;13.93;62.91
15678;BME280;7939;50.814;6.368;2023-04-01T01:48:56;97759.25;;;13.92;63.29
15678;BME280;7939;50.814;6.368;2023-04-01T01:51:24;97760.84;;;13.95;62.84
15678;BME280;7939;50.814;6.368;2023-04-01T01:53:54;97755.78;;;13.93;63.48
15678;BME280;7939;50.814;6.368;2023-04-01T01:56:23;97750.72;;;13.92;62.61
15678;BME280;7939;50.814;6.368;2023-04-01T01:58:55;97750.72;;;13.92;63.63
15678;BME280;7939;50.814;6.368;2023-04-01T02:01:25;97739.84;;;13.87;63.48
15678;BME280;7939;50.814;6.368;2023-04-01T02:03:53;97751.63;;;13.91;63.35
15678;BME280;7939;50.814;6.368;2023-04-01T02:06:22;97735.41;;;13.90;63.24
15678;BME280;7939;50.814;6.368;2023-04-01T02:08:52;97743.94;;;13.91;63.39
15678;BME280;7939;50.814;6.368;2023-04-01T02:11:26;97748.16;;;13.92;63.20
15678;BME280;7939;50.814;6.368;2023-04-01T02:13:56;97739.72;;;13.90;62.85
15678;BME280;7939;50.814;6.368;2023-04-01T02:16:28;97743.94;;;13.91;62.92
15678;BME280;7939;50.814;6.368;2023-04-01T02:18:59;97740.47;;;13.92;63.56
15678;BME280;7939;50.814;6.368;2023-04-01T02:21:30;97740.38;;;13.93;62.94
15678;BME280;7939;50.814;6.368;2023-04-01T02:23:58;97731.00;;;13.92;63.37
15678;BME280;7939;50.814;6.368;2023-04-01T02:26:27;97738.72;;;13.92;63.12
15678;BME280;7939;50.814;6.368;2023-04-01T02:28:54;97741.44;;;13.89;63.55
15678;BME280;7939;50.814;6.368;2023-04-01T02:31:22;97733.03;;;13.86;63.10
15678;BME280;7939;50.814;6.368;2023-04-01T02:33:51;97738.91;;;13.88;63.40
15678;BME280;7939;50.814;6.368;2023-04-01T02:36:18;97739.72;;;13.90;62.68
15678;BME280;7939;50.814;6.368;2023-04-01T02:38:46;97749.19;;;13.88;63.03
15678;BME280;7939;50.814;6.368;2023-04-01T02:41:14;97747.63;;;13.85;63.73
15678;BME280;7939;50.814;6.368;2023-04-01T02:43:42;97740.00;;;13.84;63.64
15678;BME280;7939;50.814;6.368;2023-04-01T02:46:09;97752.75;;;13.85;63.20
15678;BME280;7939;50.814;6.368;2023-04-01T02:48:35;97753.69;;;13.83;63.22
15678;BME280;7939;50.814;6.368;2023-04-01T02:51:02;97751.91;;;13.85;63.79
15678;BME280;7939;50.814;6.368;2023-04-01T02:53:29;97759.63;;;13.85;63.28
15678;BME280;7939;50.814;6.368;2023-04-01T02:55:56;97758.72;;;13.86;62.79
15678;BME280;7939;50.814;6.368;2023-04-01T02:58:23;97748.56;;;13.83;63.61
15678;BME280;7939;50.814;6.368;2023-04-01T03:00:51;97746.00;;;13.83;63.67
15678;BME280;7939;50.814;6.368;2023-04-01T03:03:17;97752.81;;;13.84;63.41
15678;BME280;7939;50.814;6.368;2023-04-01T03:05:44;97749.47;;;13.82;63.57
15678;BME280;7939;50.814;6.368;2023-04-01T03:08:10;97745.16;;;13.82;63.80
15678;BME280;7939;50.814;6.368;2023-04-01T03:10:37;97763.97;;;13.83;62.89
15678;BME280;7939;50.814;6.368;2023-04-01T03:13:04;97751.22;;;13.81;63.80
15678;BME280;7939;50.814;6.368;2023-04-01T03:15:31;97759.00;;;13.80;62.95
15678;BME280;7939;50.814;6.368;2023-04-01T03:17:59;97757.25;;;13.80;63.38
15678;BME280;7939;50.814;6.368;2023-04-01T03:20:25;97770.00;;;13.82;63.07
15678;BME280;7939;50.814;6.368;2023-04-01T03:22:52;97769.25;;;13.80;63.49
15678;BME280;7939;50.814;6.368;2023-04-01T03:25:19;97776.06;;;13.81;63.65
15678;BME280;7939;50.814;6.368;2023-04-01T03:27:45;97771.00;;;13.79;63.42
15678;BME280;7939;50.814;6.368;2023-04-01T03:30:12;97769.19;;;13.81;63.39
15678;BME280;7939;50.814;6.368;2023-04-01T03:32:39;97785.41;;;13.82;63.28
15678;BME280;7939;50.814;6.368;2023-04-01T03:35:08;97771.00;;;13.79;63.69
15678;BME280;7939;50.814;6.368;2023-04-01T03:37:35;97777.13;;;13.76;63.19
15678;BME280;7939;50.814;6.368;2023-04-01T03:40:02;97783.28;;;13.72;63.73
15678;BME280;7939;50.814;6.368;2023-04-01T03:42:29;97788.25;;;13.75;63.49
15678;BME280;7939;50.814;6.368;2023-04-01T03:44:56;97765.97;;;13.76;63.55
15678;BME280;7939;50.814;6.368;2023-04-01T03:47:23;97782.28;;;13.75;64.04
15678;BME280;7939;50.814;6.368;2023-04-01T03:49:49;97775.38;;;13.77;63.93
15678;BME280;7939;50.814;6.368;2023-04-01T03:52:17;97785.56;;;13.79;62.99
15678;BME280;7939;50.814;6.368;2023-04-01T03:54:44;97780.44;;;13.79;64.13
15678;BME280;7939;50.814;6.368;2023-04-01T03:57:10;97775.41;;;13.75;63.77
15678;BME280;7939;50.814;6.368;2023-04-01T03:59:37;97779.59;;;13.78;63.80
15678;BME280;7939;50.814;6.368;2023-04-01T04:02:04;97780.50;;;13.77;63.41
15678;BME280;7939;50.814;6.368;2023-04-01T04:04:31;97784.81;;;13.76;63.61
15678;BME280;7939;50.814;6.368;2023-04-01T04:06:58;97785.69;;;13.75;63.88
15678;BME280;7939;50.814;6.368;2023-04-01T04:09:25;97779.81;;;13.73;63.03
15678;BME280;7939;50.814;6.368;2023-04-01T04:11:52;97786.59;;;13.74;63.88
15678;BME280;7939;50.814;6.368;2023-04-01T04:14:19;97786.53;;;13.76;63.80
15678;BME280;7939;50.814;6.368;2023-04-01T04:16:46;97788.34;;;13.74;64.20
15678;BME280;7939;50.814;6.368;2023-04-01T04:19:12;97790.22;;;13.70;63.20
15678;BME280;7939;50.814;6.368;2023-04-01T04:21:39;97795.34;;;13.70;63.34
15678;BME280;7939;50.814;6.368;2023-04-01T04:24:06;97797.78;;;13.73;64.27
15678;BME280;7939;50.814;6.368;2023-04-01T04:26:34;97805.63;;;13.70;63.99
15678;BME280;7939;50.814;6.368;2023-04-01T04:29:00;97809.03;;;13.71;63.75
15678;BME280;7939;50.814;6.368;2023-04-01T04:31:27;97808.94;;;13.72;63.35
15678;BME280;7939;50.814;6.368;2023-04-01T04:33:54;97809.84;;;13.71;64.03
15678;BME280;7939;50.814;6.368;2023-04-01T04:36:21;97811.50;;;13.72;64.34
15678;BME280;7939;50.814;6.368;2023-04-01T04:38:48;97816.66;;;13.72;64.32
15678;BME280;7939;50.814;6.368;2023-04-01T04:41:16;97809.78;;;13.73;63.54
15678;BME280;7939;50.814;6.368;2023-04-01T04:43:51;97812.34;;;13.73;63.78
15678;BME280;7939;50.814;6.368;2023-04-01T04:46:18;97809.84;;;13.71;63.96
15678;BME280;7939;50.814;6.368;2023-04-01T04:48:46;97820.88;;;13.73;63.69
15678;BME280;7939;50.814;6.368;2023-04-01T04:51:14;97818.47;;;13.70;64.23
15678;BME280;7939;50.814;6.368;2023-04-01T04:53:41;97822.69;;;13.71;64.43
15678;BME280;7939;50.814;6.368;2023-04-01T04:56:08;97821.03;;;13.70;63.68
15678;BME280;7939;50.814;6.368;2023-04-01T04:58:35;97822.72;;;13.70;63.64
15678;BME280;7939;50.814;6.368;2023-04-01T05:01:08;97828.72;;;13.70;64.10
15678;BME280;7939;50.814;6.368;2023-04-01T05:03:36;97828.66;;;13.72;64.48
15678;BME280;7939;50.814;6.368;2023-04-01T05:06:03;97831.28;;;13.70;64.11
15678;BME280;7939;50.814;6.368;2023-04-01T05:08:30;97844.13;;;13.70;64.59
15678;BME280;7939;50.814;6.368;2023-04-01T05:10:58;97846.69;;;13.70;63.76
15678;BME280;7939;50.814;6.368;2023-04-01T05:13:24;97849.25;;;13.70;64.19
15678;BME280;7939;50.814;6.368;2023-04-01T05:15:51;97854.31;;;13.72;64.27
15678;BME280;7939;50.814;6.368;2023-04-01T05:18:19;97845.78;;;13.71;64.07
15678;BME280;7939;50.814;6.368;2023-04-01T05:20:46;97849.19;;;13.72;64.37
15678;BME280;7939;50.814;6.368;2023-04-01T05:23:14;97854.41;;;13.70;64.46
15678;BME280;7939;50.814;6.368;2023-04-01T05:25:40;97856.06;;;13.71;64.46
15678;BME280;7939;50.814;6.368;2023-04-01T05:28:07;97861.88;;;13.75;64.60
15678;BME280;7939;50.814;6.368;2023-04-01T05:30:34;97857.72;;;13.72;64.27
15678;BME280;7939;50.814;6.368;2023-04-01T05:33:00;97861.03;;;13.74;64.00
15678;BME280;7939;50.814;6.368;2023-04-01T05:35:28;97858.47;;;13.74;64.29
15678;BME280;7939;50.814;6.368;2023-04-01T05:37:55;97860.13;;;13.75;64.65
15678;BME280;7939;50.814;6.368;2023-04-01T05:40:21;97861.03;;;13.74;64.46
15678;BME280;7939;50.814;6.368;2023-04-01T05:42:48;97861.13;;;13.73;64.06
15678;BME280;7939;50.814;6.368;2023-04-01T05:45:15;97859.38;;;13.73;64.19
15678;BME280;7939;50.814;6.368;2023-04-01T05:47:41;97861.22;;;13.70;64.83
15678;BME280;7939;50.814;6.368;2023-04-01T05:50:09;97866.44;;;13.68;65.15
15678;BME280;7939;50.814;6.368;2023-04-01T05:52:37;97870.00;;;13.66;64.08
15678;BME280;7939;50.814;6.368;2023-04-01T05:55:05;97863.22;;;13.63;64.86
15678;BME280;7939;50.814;6.368;2023-04-01T05:57:32;97874.28;;;13.65;64.44
15678;BME280;7939;50.814;6.368;2023-04-01T05:59:59;97871.84;;;13.62;64.96
15678;BME280;7939;50.814;6.368;2023-04-01T06:02:26;97870.94;;;13.63;65.06
15678;BME280;7939;50.814;6.368;2023-04-01T06:04:58;97871.66;;;13.67;64.57
15678;BME280;7939;50.814;6.368;2023-04-01T06:07:28;97870.81;;;13.66;64.75
15678;BME280;7939;50.814;6.368;2023-04-01T06:09:56;97876.84;;;13.65;64.61
15678;BME280;7939;50.814;6.368;2023-04-01T06:12:45;97879.34;;;13.67;64.10
15678;BME280;7939;50.814;6.368;2023-04-01T06:15:20;97880.19;;;13.67;64.61
15678;BME280;7939;50.814;6.368;2023-04-01T06:20:41;97888.78;;;13.66;64.76
15678;BME280;7939;50.814;6.368;2023-04-01T06:23:24;97886.16;;;13.68;64.27
15678;BME280;7939;50.814;6.368;2023-04-01T06:26:11;97882.75;;;13.67;64.90
15678;BME280;7939;50.814;6.368;2023-04-01T06:29:18;97892.09;;;13.68;65.20
15678;BME280;7939;50.814;6.368;2023-04-01T06:32:09;97897.31;;;13.67;65.37
15678;BME280;7939;50.814;6.368;2023-04-01T06:37:58;97899.13;;;13.65;64.65
15678;BME280;7939;50.814;6.368;2023-04-01T06:40:53;97902.53;;;13.65;64.37
15678;BME280;7939;50.814;6.368;2023-04-01T06:43:35;97900.78;;;13.66;65.36
15678;BME280;7939;50.814;6.368;2023-04-01T06:46:12;97901.69;;;13.65;65.47
15678;BME280;7939;50.814;6.368;2023-04-01T06:48:57;97911.25;;;13.61;65.64
15678;BME280;7939;50.814;6.368;2023-04-01T06:51:34;97912.84;;;13.64;64.89
15678;BME280;7939;50.814;6.368;2023-04-01T06:54:07;97915.41;;;13.64;64.56
15678;BME280;7939;50.814;6.368;2023-04-01T06:56:37;97913.72;;;13.63;65.36
15678;BME280;7939;50.814;6.368;2023-04-01T06:59:12;97928.31;;;13.62;64.77
15678;BME280;7939;50.814;6.368;2023-04-01T07:01:43;97922.25;;;13.63;64.72
15678;BME280;7939;50.814;6.368;2023-04-01T07:04:15;97925.72;;;13.62;64.83
15678;BME280;7939;50.814;6.368;2023-04-01T07:06:47;97933.38;;;13.64;65.62
15678;BME280;7939;50.814;6.368;2023-04-01T07:09:19;97936.00;;;13.62;64.98
15678;BME280;7939;50.814;6.368;2023-04-01T07:11:48;97927.47;;;13.62;65.60
15678;BME280;7939;50.814;6.368;2023-04-01T07:14:20;97932.53;;;13.63;64.97
15678;BME280;7939;50.814;6.368;2023-04-01T07:16:51;97944.50;;;13.64;64.75
15678;BME280;7939;50.814;6.368;2023-04-01T07:19:23;97937.75;;;13.62;65.59
15678;BME280;7939;50.814;6.368;2023-04-01T07:21:55;97948.84;;;13.62;65.57
15678;BME280;7939;50.814;6.368;2023-04-01T07:24:26;97944.53;;;13.63;65.39
15678;BME280;7939;50.814;6.368;2023-04-01T07:26:55;97950.50;;;13.63;65.21
15678;BME280;7939;50.814;6.368;2023-04-01T07:29:24;97954.75;;;13.64;65.46
15678;BME280;7939;50.814;6.368;2023-04-01T07:32:14;97958.19;;;13.63;66.07
15678;BME280;7939;50.814;6.368;2023-04-01T07:34:57;97960.75;;;13.63;65.45
15678;BME280;7939;50.814;6.368;2023-04-01T07:37:29;97964.13;;;13.65;65.45
15678;BME280;7939;50.814;6.368;2023-04-01T07:40:06;97971.88;;;13.64;65.47
15678;BME280;7939;50.814;6.368;2023-04-01T07:42:47;97970.91;;;13.66;65.34
15678;BME280;7939;50.814;6.368;2023-04-01T07:45:24;97973.56;;;13.65;65.32
15678;BME280;7939;50.814;6.368;2023-04-01T07:48:09;97971.00;;;13.65;65.38
15678;BME280;7939;50.814;6.368;2023-04-01T07:50:47;97974.38;;;13.65;65.94
15678;BME280;7939;50.814;6.368;2023-04-01T07:53:24;97983.75;;;13.66;65.21
15678;BME280;7939;50.814;6.368;2023-04-01T07:55:59;97993.19;;;13.66;65.09
15678;BME280;7939;50.814;6.368;2023-04-01T07:58:34;97995.03;;;13.62;65.69
15678;BME280;7939;50.814;6.368;2023-04-01T08:01:11;98000.09;;;13.64;65.75
15678;BME280;7939;50.814;6.368;2023-04-01T08:03:53;98001.06;;;13.61;65.37
15678;BME280;7939;50.814;6.368;2023-04-01T08:06:26;98003.63;;;13.61;65.29
15678;BME280;7939;50.814;6.368;2023-04-01T08:09:02;98010.38;;;13.64;65.69
15678;BME280;7939;50.814;6.368;2023-04-01T08:11:43;98014.72;;;13.62;65.94
15678;BME280;7939;50.814;6.368;2023-04-01T08:14:20;98022.56;;;13.59;65.64
15678;BME280;7939;50.814;6.368;2023-04-01T08:16:57;98027.56;;;13.62;66.04
15678;BME280;7939;50.814;6.368;2023-04-01T08:19:34;98027.50;;;13.63;66.17
15678;BME280;7939;50.814;6.368;2023-04-01T08:22:09;98026.75;;;13.61;66.00
15678;BME280;7939;50.814;6.368;2023-04-01T08:24:42;98036.09;;;13.62;65.93
15678;BME280;7939;50.814;6.368;2023-04-01T08:27:16;98033.59;;;13.61;66.04
15678;BME280;7939;50.814;6.368;2023-04-01T08:29:50;98042.13;;;13.61;66.61
15678;BME280;7939;50.814;6.368;2023-04-01T08:32:22;98042.97;;;13.62;65.80
15678;BME280;7939;50.814;6.368;2023-04-01T08:35:00;98048.03;;;13.63;66.29
15678;BME280;7939;50.814;6.368;2023-04-01T08:37:32;98047.41;;;13.58;66.62
15678;BME280;7939;50.814;6.368;2023-04-01T08:40:13;98052.41;;;13.61;65.76
15678;BME280;7939;50.814;6.368;2023-04-01T08:42:59;98049.00;;;13.61;65.82
15678;BME280;7939;50.814;6.368;2023-04-01T08:45:43;98052.41;;;13.61;66.92
15678;BME280;7939;50.814;6.368;2023-04-01T08:48:27;98054.91;;;13.63;66.81
15678;BME280;7939;50.814;6.368;2023-04-01T08:51:16;98063.44;;;13.63;66.73
15678;BME280;7939;50.814;6.368;2023-04-01T08:54:15;98066.78;;;13.65;66.40
15678;BME280;7939;50.814;6.368;2023-04-01T08:56:57;98072.88;;;13.63;66.20
15678;BME280;7939;50.814;6.368;2023-04-01T08:59:39;98076.22;;;13.65;65.76
15678;BME280;7939;50.814;6.368;2023-04-01T09:02:39;98074.50;;;13.65;65.89
15678;BME280;7939;50.814;6.368;2023-04-01T09:05:34;98084.69;;;13.67;66.02
15678;BME280;7939;50.814;6.368;2023-04-01T09:08:13;98086.34;;;13.68;66.88
15678;BME280;7939;50.814;6.368;2023-04-01T09:10:53;98089.75;;;13.68;66.46
15678;BME280;7939;50.814;6.368;2023-04-01T09:13:44;98084.56;;;13.70;66.24
15678;BME280;7939;50.814;6.368;2023-04-01T09:16:23;98094.06;;;13.68;67.27
15678;BME280;7939;50.814;6.368;2023-04-01T09:19:11;98084.63;;;13.68;66.63
15678;BME280;7939;50.814;6.368;2023-04-01T09:21:58;98092.25;;;13.70;66.72
15678;BME280;7939;50.814;6.368;2023-04-01T09:24:58;98096.56;;;13.69;66.76
15678;BME280;7939;50.814;6.368;2023-04-01T09:27:29;98091.38;;;13.71;66.81
15678;BME280;7939;50.814;6.368;2023-04-01T09:30:28;98100.75;;;13.72;66.48
15678;BME280;7939;50.814;6.368;2023-04-01T09:33:16;98095.72;;;13.69;66.50
15678;BME280;7939;50.814;6.368;2023-04-01T09:35:50;98111.84;;;13.72;66.17
15678;BME280;7939;50.814;6.368;2023-04-01T09:38:29;98106.72;;;13.72;66.93
15678;BME280;7939;50.814;6.368;2023-04-01T09:40:57;98103.19;;;13.75;66.81
15678;BME280;7939;50.814;6.368;2023-04-01T09:43:26;98121.16;;;13.75;66.21
15678;BME280;7939;50.814;6.368;2023-04-01T09:46:11;98106.72;;;13.72;66.57
15678;BME280;7939;50.814;6.368;2023-04-01T09:49:03;98110.13;;;13.73;67.49
15678;BME280;7939;50.814;6.368;2023-04-01T09:51:40;98106.72;;;13.72;66.72
15678;BME280;7939;50.814;6.368;2023-04-01T09:54:22;98122.88;;;13.74;66.39
15678;BME280;7939;50.814;6.368;2023-04-01T10:00:28;98128.94;;;13.73;67.21
15678;BME280;7939;50.814;6.368;2023-04-01T10:03:26;98134.88;;;13.74;67.44
15678;BME280;7939;50.814;6.368;2023-04-01T10:06:25;98134.88;;;13.74;67.13
15678;BME280;7939;50.814;6.368;2023-04-01T10:09:21;98140.84;;;13.74;67.29
15678;BME280;7939;50.814;6.368;2023-04-01T10:12:19;98143.31;;;13.77;67.23
15678;BME280;7939;50.814;6.368;2023-04-01T10:21:22;98149.34;;;13.76;67.22
15678;BME280;7939;50.814;6.368;2023-04-01T10:24:07;98165.47;;;13.80;66.92
15678;BME280;7939;50.814;6.368;2023-04-01T10:26:55;98168.88;;;13.81;67.36
15678;BME280;7939;50.814;6.368;2023-04-01T10:35:29;98174.75;;;13.83;67.21
15678;BME280;7939;50.814;6.368;2023-04-01T10:38:30;98175.56;;;13.85;67.52
15678;BME280;7939;50.814;6.368;2023-04-01T10:41:19;98173.91;;;13.84;67.33
15678;BME280;7939;50.814;6.368;2023-04-01T10:47:25;98174.75;;;13.83;67.12
15678;BME280;7939;50.814;6.368;2023-04-01T10:50:24;98176.31;;;13.87;67.77
15678;BME280;7939;50.814;6.368;2023-04-01T10:56:32;98178.81;;;13.88;67.77
15678;BME280;7939;50.814;6.368;2023-04-01T11:02:47;98179.66;;;13.89;67.75
15678;BME280;7939;50.814;6.368;2023-04-01T11:05:48;98188.16;;;13.91;66.77
15678;BME280;7939;50.814;6.368;2023-04-01T11:12:00;98184.69;;;13.92;67.04
15678;BME280;7939;50.814;6.368;2023-04-01T11:14:47;98199.13;;;13.94;66.86
15678;BME280;7939;50.814;6.368;2023-04-01T11:17:49;98194.97;;;13.92;68.13
15678;BME280;7939;50.814;6.368;2023-04-01T11:23:58;98189.00;;;13.91;67.08
15678;BME280;7939;50.814;6.368;2023-04-01T11:26:43;98197.53;;;13.92;67.73
15678;BME280;7939;50.814;6.368;2023-04-01T11:32:20;98206.00;;;13.94;67.04
15678;BME280;7939;50.814;6.368;2023-04-01T11:35:12;98206.00;;;13.94;67.19
15678;BME280;7939;50.814;6.368;2023-04-01T11:37:50;98210.25;;;13.95;67.12
15678;BME280;7939;50.814;6.368;2023-04-01T11:40:25;98222.22;;;13.96;66.99
15678;BME280;7939;50.814;6.368;2023-04-01T11:43:02;98222.25;;;13.94;66.49
15678;BME280;7939;50.814;6.368;2023-04-01T11:45:36;98231.69;;;13.94;67.53
15678;BME280;7939;50.814;6.368;2023-04-01T11:48:23;98211.38;;;13.88;67.47
15678;BME280;7939;50.814;6.368;2023-04-01T11:51:09;98224.88;;;13.93;66.85
15678;BME280;7939;50.814;6.368;2023-04-01T11:53:44;98228.22;;;13.95;67.13
15678;BME280;7939;50.814;6.368;2023-04-01T11:56:26;98232.47;;;13.96;67.42
15678;BME280;7939;50.814;6.368;2023-04-01T11:59:05;98236.81;;;13.94;67.40
15678;BME280;7939;50.814;6.368;2023-04-01T12:01:52;98239.34;;;13.95;67.30
15678;BME280;7939;50.814;6.368;2023-04-01T12:04:54;98244.59;;;13.92;67.09
15678;BME280;7939;50.814;6.368;2023-04-01T12:07:44;98239.38;;;13.94;67.68
15678;BME280;7939;50.814;6.368;2023-04-01T12:10:18;98252.28;;;13.92;67.62
15678;BME280;7939;50.814;6.368;2023-04-01T12:12:49;98256.44;;;13.96;67.12
15678;BME280;7939;50.814;6.368;2023-04-01T12:15:29;98251.28;;;13.96;67.25
15678;BME280;7939;50.814;6.368;2023-04-01T12:18:05;98257.25;;;13.97;66.92
15678;BME280;7939;50.814;6.368;2023-04-01T12:20:48;98254.69;;;13.97;67.55
15678;BME280;7939;50.814;6.368;2023-04-01T12:23:34;98253.72;;;13.99;67.41
15678;BME280;7939;50.814;6.368;2023-04-01T12:26:22;98258.03;;;13.99;67.68
15678;BME280;7939;50.814;6.368;2023-04-01T12:29:07;98267.47;;;13.98;68.13
15678;BME280;7939;50.814;6.368;2023-04-01T12:31:42;98263.09;;;14.00;67.87
15678;BME280;7939;50.814;6.368;2023-04-01T12:34:34;98273.38;;;14.00;68.45
15678;BME280;7939;50.814;6.368;2023-04-01T12:37:10;98267.47;;;13.98;68.68
15678;BME280;7939;50.814;6.368;2023-04-01T12:39:55;98271.63;;;14.01;68.32
15678;BME280;7939;50.814;6.368;2023-04-01T12:42:36;98277.50;;;14.04;68.20
15678;BME280;7939;50.814;6.368;2023-04-01T12:45:27;98267.34;;;14.01;68.33
15678;BME280;7939;50.814;6.368;2023-04-01T12:51:28;98282.66;;;14.04;69.02
15678;BME280;7939;50.814;6.368;2023-04-01T12:57:20;98280.06;;;14.04;68.55
15678;BME280;7939;50.814;6.368;2023-04-01T13:00:11;98285.09;;;14.08;68.01
15678;BME280;7939;50.814;6.368;2023-04-01T13:02:48;98286.81;;;14.07;68.26
15678;BME280;7939;50.814;6.368;2023-04-01T13:05:44;98288.53;;;14.08;68.66
15678;BME280;7939;50.814;6.368;2023-04-01T13:08:27;98292.75;;;14.09;68.33
15678;BME280;7939;50.814;6.368;2023-04-01T13:11:09;98294.53;;;14.07;68.18
15678;BME280;7939;50.814;6.368;2023-04-01T13:14:11;98303.06;;;14.08;67.77
15678;BME280;7939;50.814;6.368;2023-04-01T13:16:48;98299.63;;;14.09;68.15
15678;BME280;7939;50.814;6.368;2023-04-01T13:19:21;98304.69;;;14.10;68.18
15678;BME280;7939;50.814;6.368;2023-04-01T13:21:55;98303.94;;;14.08;67.99
15678;BME280;7939;50.814;6.368;2023-04-01T13:24:34;98309.84;;;14.10;68.31
15678;BME280;7939;50.814;6.368;2023-04-01T13:27:07;98314.91;;;14.12;67.95
15678;BME280;7939;50.814;6.368;2023-04-01T13:29:40;98313.09;;;14.14;68.18
15678;BME280;7939;50.814;6.368;2023-04-01T13:32:26;98309.72;;;14.13;68.15
15678;BME280;7939;50.814;6.368;2023-04-01T13:35:06;98316.53;;;14.14;67.72
15678;BME280;7939;50.814;6.368;2023-04-01T13:37:52;98312.28;;;14.13;67.85
15678;BME280;7939;50.814;6.368;2023-04-01T13:40:33;98318.25;;;14.14;67.99
15678;BME280;7939;50.814;6.368;2023-04-01T13:43:10;98330.22;;;14.15;67.71
15678;BME280;7939;50.814;6.368;2023-04-01T13:45:55;98333.66;;;14.14;67.57
15678;BME280;7939;50.814;6.368;2023-04-01T13:48:35;98335.41;;;14.13;67.77
15678;BME280;7939;50.814;6.368;2023-04-01T13:51:25;98331.91;;;14.16;67.79
15678;BME280;7939;50.814;6.368;2023-04-01T13:56:57;98330.16;;;14.16;68.08
15678;BME280;7939;50.814;6.368;2023-04-01T13:59:55;98336.19;;;14.15;68.13
15678;BME280;7939;50.814;6.368;2023-04-01T14:02:57;98343.00;;;14.16;67.82
15678;BME280;7939;50.814;6.368;2023-04-01T14:05:39;98337.94;;;14.15;68.13
15678;BME280;7939;50.814;6.368;2023-04-01T14:08:20;98332.72;;;14.16;67.35
15678;BME280;7939;50.814;6.368;2023-04-01T14:11:01;98330.16;;;14.16;67.96
15678;BME280;7939;50.814;6.368;2023-04-01T14:13:37;98348.00;;;14.19;67.90
15678;BME280;7939;50.814;6.368;2023-04-01T14:16:24;98345.44;;;14.19;67.99
15678;BME280;7939;50.814;6.368;2023-04-01T14:19:17;98349.75;;;14.19;67.54
15678;BME280;7939;50.814;6.368;2023-04-01T14:21:55;98351.41;;;14.20;68.17
15678;BME280;7939;50.814;6.368;2023-04-01T14:24:36;98360.84;;;14.19;67.88
15678;BME280;7939;50.814;6.368;2023-04-01T14:27:40;98359.97;;;14.20;68.35
15678;BME280;7939;50.814;6.368;2023-04-01T14:30:30;98362.50;;;14.22;67.54
15678;BME280;7939;50.814;6.368;2023-04-01T14:33:06;98363.38;;;14.21;68.35
15678;BME280;7939;50.814;6.368;2023-04-01T14:35:49;98365.84;;;14.24;67.94
15678;BME280;7939;50.814;6.368;2023-04-01T14:38:38;98365.91;;;14.22;67.43
15678;BME280;7939;50.814;6.368;2023-04-01T14:41:16;98369.31;;;14.23;68.55
15678;BME280;7939;50.814;6.368;2023-04-01T14:44:22;98374.44;;;14.23;67.71
15678;BME280;7939;50.814;6.368;2023-04-01T14:47:15;98379.50;;;14.24;68.32
15678;BME280;7939;50.814;6.368;2023-04-01T14:49:51;98386.38;;;14.24;68.16